Current Weather

Laguna De Los Patos Intl

Laguna De Los Patos Intl, Uruguay (SUCA)

Report from: Sunday, July 14, 2024 7:00 PM -03
Current time: Monday, July 15, 2024 2:36 AM -03

Nearby weather – Weather history – Daily summaries
Weather forecast

Temperature8.0°C (46.4°F)
Wind chill6.4°C (43.5°F)
Dew point4.0°C (39.2°F)
Winds 5 kts (2.6 m/s, 5.8 mph) East-Southeast (120°)
Clouds Sky clear
Altimeter30.45 in.Hg (1031 mB)
Relative humidity76 %
Density altitude-1,320 ft. (-402 m)
Remarks Ceiling and visibility OK
Flight conditions Visual Meteorological Conditions
Raw dataSUCA 142200Z 12005KT CAVOK 08/04 Q1031
An error has occurred. This application may no longer respond until reloaded. Reload 🗙